Time;durP1;ratioP1;P1;durP2;ratioP2;P2;SDS_P1;SDS_P2;PMS_P1;PMS_P2;Temp;Humidity;BMP_temperature;BMP_pressure;BME280_temperature;BME280_humidity;BME280_pressure;Samples;Min_cycle;Max_cycle;Signal;HPM_P1;HPM_P2
2021/09/02 00:00:52;;;;;;;13.30;8.37;;;17.00;99.90;;;;;;4397825;32;20171;-66
2021/09/02 00:03:22;;;;;;;10.30;7.23;;;16.90;99.90;;;;;;4403689;32;20155;-64
2021/09/02 00:05:50;;;;;;;11.03;6.97;;;16.90;99.90;;;;;;4398853;32;20160;-63
2021/09/02 00:08:20;;;;;;;11.90;6.87;;;16.90;99.90;;;;;;4400565;32;20175;-64
2021/09/02 00:10:47;;;;;;;9.17;7.13;;;17.00;99.90;;;;;;4392009;32;20160;-65
2021/09/02 00:13:13;;;;;;;11.23;7.30;;;17.00;99.90;;;;;;4404043;32;20160;-65
2021/09/02 00:15:40;;;;;;;7.40;6.40;;;17.00;99.90;;;;;;4406865;32;20179;-66
2021/09/02 00:18:07;;;;;;;15.17;7.23;;;17.00;99.90;;;;;;4397653;32;20175;-66
2021/09/02 00:20:34;;;;;;;12.57;7.63;;;16.90;99.90;;;;;;4391820;32;20152;-66
2021/09/02 00:23:03;;;;;;;10.40;7.30;;;16.90;99.90;;;;;;4404319;32;20183;-65
2021/09/02 00:25:31;;;;;;;10.30;7.13;;;16.90;99.90;;;;;;4406447;32;20227;-63
2021/09/02 00:27:58;;;;;;;9.17;6.97;;;16.90;99.90;;;;;;4402783;32;20191;-63
2021/09/02 00:30:25;;;;;;;11.90;7.17;;;16.90;99.90;;;;;;4398149;32;20469;-64
2021/09/02 00:32:52;;;;;;;10.10;6.77;;;16.80;99.90;;;;;;4404835;32;20175;-63
2021/09/02 00:35:19;;;;;;;9.70;6.20;;;16.80;99.90;;;;;;4407518;32;20183;-63
2021/09/02 00:37:46;;;;;;;9.10;6.07;;;16.80;99.90;;;;;;4405768;32;20181;-63
2021/09/02 00:40:14;;;;;;;13.33;7.30;;;16.80;99.90;;;;;;4401999;32;20174;-63
2021/09/02 00:42:43;;;;;;;13.03;6.97;;;16.80;99.90;;;;;;4402726;32;20175;-63
2021/09/02 00:45:11;;;;;;;10.03;6.30;;;16.80;99.90;;;;;;4402569;32;20232;-64
2021/09/02 00:47:38;;;;;;;11.50;6.80;;;16.80;99.90;;;;;;4403843;32;20178;-64
2021/09/02 00:50:06;;;;;;;11.00;6.83;;;16.80;99.90;;;;;;4400105;32;20197;-63
2021/09/02 00:52:34;;;;;;;7.70;6.33;;;16.80;99.90;;;;;;4397726;32;20186;-63
2021/09/02 00:55:03;;;;;;;12.13;6.93;;;16.80;99.90;;;;;;4405572;32;20170;-65
2021/09/02 00:57:33;;;;;;;8.23;5.87;;;16.80;99.90;;;;;;4399853;32;20193;-64
2021/09/02 01:00:06;;;;;;;12.17;7.27;;;16.80;99.90;;;;;;4407890;32;20152;-64
2021/09/02 01:02:36;;;;;;;8.80;6.40;;;16.80;99.90;;;;;;4405567;32;20178;-64
2021/09/02 01:05:04;;;;;;;11.73;6.20;;;16.70;99.90;;;;;;4402607;32;20195;-65
2021/09/02 01:07:32;;;;;;;11.20;7.23;;;16.70;99.90;;;;;;4399431;32;20626;-64
2021/09/02 01:10:02;;;;;;;13.10;6.40;;;16.80;99.90;;;;;;4394954;32;20155;-64
2021/09/02 01:12:33;;;;;;;10.00;6.43;;;16.70;99.90;;;;;;4402099;32;20191;-66
2021/09/02 01:15:02;;;;;;;7.60;5.87;;;16.70;99.90;;;;;;4397902;32;20171;-64
2021/09/02 01:17:33;;;;;;;9.60;6.53;;;16.70;99.90;;;;;;4405051;32;20199;-64
2021/09/02 01:20:00;;;;;;;10.23;7.10;;;16.70;99.90;;;;;;4403112;32;20166;-65
2021/09/02 01:22:28;;;;;;;8.73;6.50;;;16.70;99.90;;;;;;4403920;32;20579;-65
2021/09/02 01:24:58;;;;;;;8.97;6.20;;;16.70;99.90;;;;;;4396157;32;20156;-66
2021/09/02 01:27:27;;;;;;;8.77;6.13;;;16.60;99.90;;;;;;4401954;32;20175;-63
2021/09/02 01:29:57;;;;;;;9.83;6.93;;;16.60;99.90;;;;;;4398742;32;20186;-64
2021/09/02 01:32:25;;;;;;;10.93;6.40;;;16.60;99.90;;;;;;4392492;32;20498;-64
2021/09/02 01:34:55;;;;;;;11.50;6.50;;;16.60;99.90;;;;;;4399816;32;20211;-64
2021/09/02 01:37:22;;;;;;;10.80;6.13;;;16.60;99.90;;;;;;4400297;32;20166;-65
2021/09/02 01:39:49;;;;;;;12.17;6.57;;;16.60;99.90;;;;;;4401740;32;20686;-64
2021/09/02 01:42:18;;;;;;;8.70;5.97;;;16.60;99.90;;;;;;4403671;32;20159;-67
2021/09/02 01:44:45;;;;;;;10.17;6.67;;;16.60;99.90;;;;;;4405892;32;20183;-64
2021/09/02 01:47:26;;;;;;;7.23;5.80;;;16.60;99.90;;;;;;4395192;32;20230;-66
2021/09/02 01:49:54;;;;;;;9.27;6.10;;;16.60;99.90;;;;;;4398827;32;20148;-64
2021/09/02 01:52:24;;;;;;;12.60;6.13;;;16.60;99.90;;;;;;4405540;32;20160;-65
2021/09/02 01:54:51;;;;;;;8.60;6.40;;;16.60;99.90;;;;;;4406196;32;20171;-65
2021/09/02 01:57:19;;;;;;;10.17;6.77;;;16.60;99.90;;;;;;4404660;32;20167;-64
2021/09/02 01:59:46;;;;;;;11.13;6.83;;;16.60;99.90;;;;;;4406103;32;20202;-64
2021/09/02 02:02:13;;;;;;;8.03;6.10;;;16.60;99.90;;;;;;4404033;32;20243;-65
2021/09/02 02:04:40;;;;;;;10.03;6.30;;;16.50;99.90;;;;;;4328896;32;2506265;-66
2021/09/02 02:07:06;;;;;;;12.17;6.13;;;16.50;99.90;;;;;;4402855;32;20144;-64
2021/09/02 02:09:35;;;;;;;11.43;7.03;;;16.50;99.90;;;;;;4403238;32;20183;-64
2021/09/02 02:12:02;;;;;;;9.40;7.10;;;16.60;99.90;;;;;;4394684;32;20157;-64
2021/09/02 02:14:30;;;;;;;9.33;6.80;;;16.50;99.90;;;;;;4405760;32;20191;-66
2021/09/02 02:16:57;;;;;;;9.17;6.13;;;16.50;99.90;;;;;;4398890;32;20197;-64
2021/09/02 02:19:24;;;;;;;9.03;6.63;;;16.50;99.90;;;;;;4403778;32;20556;-67
2021/09/02 02:21:51;;;;;;;11.67;7.30;;;16.60;99.90;;;;;;4403727;32;20576;-64
2021/09/02 02:24:19;;;;;;;10.27;6.47;;;16.50;99.90;;;;;;4393333;32;20166;-65
2021/09/02 02:26:46;;;;;;;9.53;6.40;;;16.50;99.90;;;;;;4398230;32;20638;-64
2021/09/02 02:29:12;;;;;;;10.70;6.63;;;16.50;99.90;;;;;;4398889;32;20164;-64
2021/09/02 02:31:42;;;;;;;11.63;6.83;;;16.50;99.90;;;;;;4406587;32;20241;-66
2021/09/02 02:34:10;;;;;;;9.77;6.97;;;16.50;99.90;;;;;;4408758;32;20166;-66
2021/09/02 02:36:37;;;;;;;10.10;6.67;;;16.50;99.90;;;;;;4407635;32;20231;-65
2021/09/02 02:39:04;;;;;;;11.33;6.90;;;16.50;99.90;;;;;;4402522;32;20667;-64
2021/09/02 02:41:32;;;;;;;11.47;7.47;;;16.50;99.90;;;;;;4409333;32;20152;-65
2021/09/02 02:44:00;;;;;;;8.97;6.47;;;16.50;99.90;;;;;;4409084;32;20505;-64
2021/09/02 02:46:27;;;;;;;11.03;6.37;;;16.40;99.90;;;;;;4411107;32;20194;-64
2021/09/02 02:48:55;;;;;;;9.50;6.43;;;16.40;99.90;;;;;;4408971;32;20143;-65
2021/09/02 02:51:22;;;;;;;10.93;6.13;;;16.50;99.90;;;;;;4408412;32;20598;-64
2021/09/02 02:53:49;;;;;;;10.13;6.60;;;16.50;99.90;;;;;;4410525;32;20143;-65
2021/09/02 02:56:15;;;;;;;8.83;6.20;;;16.50;99.90;;;;;;4407888;32;20159;-66
2021/09/02 02:58:45;;;;;;;8.83;6.87;;;16.50;99.90;;;;;;4407224;32;20147;-64
2021/09/02 03:01:12;;;;;;;10.27;6.53;;;16.50;99.90;;;;;;4400635;32;20153;-66
2021/09/02 03:03:41;;;;;;;9.07;6.23;;;16.40;99.90;;;;;;4398009;32;20179;-64
2021/09/02 03:06:10;;;;;;;9.10;7.03;;;16.40;99.90;;;;;;4398849;32;20583;-65
2021/09/02 03:08:39;;;;;;;12.23;7.17;;;16.30;99.90;;;;;;4402585;32;20467;-65
2021/09/02 03:11:07;;;;;;;9.33;5.73;;;16.40;99.90;;;;;;4409102;32;20148;-64
2021/09/02 03:13:37;;;;;;;8.77;6.30;;;16.30;99.90;;;;;;4396080;32;20179;-64
2021/09/02 03:16:04;;;;;;;9.03;5.67;;;16.40;99.90;;;;;;4405991;32;20155;-64
2021/09/02 03:18:31;;;;;;;11.90;6.50;;;16.40;99.90;;;;;;4400507;32;20152;-64
2021/09/02 03:20:58;;;;;;;6.80;5.60;;;16.40;99.90;;;;;;4403869;32;20254;-64
2021/09/02 03:23:28;;;;;;;9.37;5.50;;;16.40;99.90;;;;;;4406256;32;20568;-67
2021/09/02 03:25:55;;;;;;;7.27;5.50;;;16.40;99.90;;;;;;4408934;32;20147;-64
2021/09/02 03:28:23;;;;;;;10.00;6.37;;;16.40;99.90;;;;;;4401004;32;20195;-64
2021/09/02 03:30:50;;;;;;;7.87;5.57;;;16.40;99.90;;;;;;4404038;32;20167;-66
2021/09/02 03:33:17;;;;;;;7.53;5.53;;;16.40;99.90;;;;;;4408527;32;20147;-63
2021/09/02 03:35:44;;;;;;;12.83;6.33;;;16.40;99.90;;;;;;4406766;32;20222;-64
2021/09/02 03:38:11;;;;;;;9.40;6.20;;;16.40;99.90;;;;;;4399971;32;20195;-66
2021/09/02 03:40:39;;;;;;;7.93;5.57;;;16.40;99.90;;;;;;4406294;32;20174;-63
2021/09/02 03:43:06;;;;;;;12.53;6.07;;;16.40;99.90;;;;;;4407525;32;20160;-64
2021/09/02 03:45:33;;;;;;;9.43;5.73;;;16.30;99.90;;;;;;4405685;32;20643;-65
2021/09/02 03:48:00;;;;;;;9.13;5.60;;;16.30;99.90;;;;;;4405080;32;20194;-64
2021/09/02 03:50:27;;;;;;;9.37;5.40;;;16.30;99.90;;;;;;4399816;32;20164;-64
2021/09/02 03:52:54;;;;;;;8.80;5.97;;;16.30;99.90;;;;;;4394525;32;20159;-66
2021/09/02 03:55:21;;;;;;;9.43;5.10;;;16.30;99.90;;;;;;4406798;32;20694;-64
2021/09/02 03:57:49;;;;;;;8.47;5.40;;;16.30;99.90;;;;;;4398051;32;20140;-64
2021/09/02 04:00:17;;;;;;;7.60;5.73;;;16.20;99.90;;;;;;4392383;32;20599;-64
2021/09/02 04:02:44;;;;;;;10.83;5.80;;;16.30;99.90;;;;;;4396128;32;20144;-66
2021/09/02 04:05:11;;;;;;;11.33;6.70;;;16.30;99.90;;;;;;4404920;32;20190;-64
2021/09/02 04:07:38;;;;;;;10.03;6.53;;;16.30;99.90;;;;;;4404643;32;20152;-63
2021/09/02 04:10:06;;;;;;;8.43;5.73;;;16.30;99.90;;;;;;4407089;32;20184;-67
2021/09/02 04:12:34;;;;;;;11.50;6.73;;;16.30;99.90;;;;;;4402624;32;20160;-64
2021/09/02 04:15:02;;;;;;;9.30;6.37;;;16.30;99.90;;;;;;4406714;32;20175;-64
2021/09/02 04:17:29;;;;;;;10.03;6.17;;;16.30;99.90;;;;;;4403451;32;20215;-66
2021/09/02 04:19:57;;;;;;;13.63;6.30;;;16.20;99.90;;;;;;4392076;32;20152;-64
2021/09/02 04:22:24;;;;;;;10.40;6.10;;;16.20;99.90;;;;;;4396540;32;20163;-65
2021/09/02 04:24:51;;;;;;;11.50;6.37;;;16.30;99.90;;;;;;4396740;32;20606;-63
2021/09/02 04:27:18;;;;;;;14.10;6.43;;;16.20;99.90;;;;;;4393612;32;20168;-64
2021/09/02 04:29:45;;;;;;;8.67;6.27;;;16.20;99.90;;;;;;4387561;32;20735;-64
2021/09/02 04:32:29;;;;;;;10.63;6.87;;;16.20;99.90;;;;;;4391719;32;20175;-64
2021/09/02 04:34:58;;;;;;;8.97;5.37;;;16.20;99.90;;;;;;4392633;32;20148;-64
2021/09/02 04:37:25;;;;;;;7.83;5.47;;;16.10;99.90;;;;;;4388321;32;20147;-65
2021/09/02 04:39:52;;;;;;;8.10;5.67;;;16.20;99.90;;;;;;4391952;32;20222;-64
2021/09/02 04:42:19;;;;;;;9.50;6.43;;;16.10;99.90;;;;;;4401978;32;20207;-64
2021/09/02 04:44:46;;;;;;;9.90;7.63;;;16.00;99.90;;;;;;4405263;32;20155;-64
2021/09/02 04:47:14;;;;;;;10.13;7.23;;;16.10;99.90;;;;;;4396607;32;20170;-64
2021/09/02 04:49:42;;;;;;;9.03;6.47;;;16.10;99.90;;;;;;4402246;32;20172;-66
2021/09/02 04:52:09;;;;;;;9.93;7.03;;;16.10;99.90;;;;;;4399420;32;20158;-64
2021/09/02 04:54:36;;;;;;;7.77;6.00;;;16.10;99.90;;;;;;4397533;32;20160;-64
2021/09/02 04:57:03;;;;;;;8.47;5.40;;;16.10;99.90;;;;;;4396850;32;20167;-65
2021/09/02 04:59:30;;;;;;;9.10;5.73;;;16.10;99.90;;;;;;4400378;32;20166;-67
2021/09/02 05:01:57;;;;;;;9.27;5.97;;;16.10;99.90;;;;;;4397115;32;20476;-64
2021/09/02 05:04:25;;;;;;;9.43;5.37;;;16.10;99.90;;;;;;4402808;32;20668;-66
2021/09/02 05:06:52;;;;;;;10.37;5.47;;;16.10;99.90;;;;;;4405202;32;20477;-66
2021/09/02 05:09:21;;;;;;;12.00;5.27;;;16.10;99.90;;;;;;4400168;32;20659;-66
2021/09/02 05:11:47;;;;;;;9.77;5.70;;;16.10;99.90;;;;;;4392868;32;20182;-66
2021/09/02 05:14:14;;;;;;;7.57;5.23;;;16.20;99.90;;;;;;4399326;32;20580;-64
2021/09/02 05:16:41;;;;;;;9.07;5.60;;;16.20;99.90;;;;;;4405212;32;20160;-66
2021/09/02 05:19:08;;;;;;;9.50;4.70;;;16.30;99.90;;;;;;4396043;32;20148;-64
2021/09/02 05:21:36;;;;;;;6.53;4.87;;;16.20;99.90;;;;;;4400651;32;20606;-66
2021/09/02 05:24:03;;;;;;;13.43;6.73;;;16.30;99.90;;;;;;4393990;32;20229;-64
2021/09/02 05:26:33;;;;;;;6.33;4.67;;;16.30;99.90;;;;;;4401446;32;20175;-64
2021/09/02 05:29:00;;;;;;;10.57;4.80;;;16.30;99.90;;;;;;4402765;32;20167;-65
2021/09/02 05:31:30;;;;;;;9.17;5.10;;;16.30;99.90;;;;;;4401482;32;20144;-64
2021/09/02 05:33:57;;;;;;;7.70;4.77;;;16.40;99.90;;;;;;4402260;32;20136;-64
2021/09/02 05:36:24;;;;;;;10.50;5.77;;;16.50;99.90;;;;;;4404084;32;20171;-64
2021/09/02 05:38:52;;;;;;;7.70;4.70;;;16.50;99.90;;;;;;4405204;32;20179;-64
2021/09/02 05:41:19;;;;;;;8.57;4.80;;;16.50;99.90;;;;;;4403803;32;20190;-64
2021/09/02 05:43:49;;;;;;;9.33;5.20;;;16.60;99.90;;;;;;4403068;32;20194;-63
2021/09/02 05:46:18;;;;;;;7.93;4.80;;;16.50;99.90;;;;;;4403560;32;20180;-64
2021/09/02 05:48:45;;;;;;;9.00;4.87;;;16.50;99.90;;;;;;4403716;32;20171;-64
2021/09/02 05:51:12;;;;;;;9.17;5.30;;;16.50;99.90;;;;;;4400565;32;20179;-63
2021/09/02 05:53:39;;;;;;;6.90;5.00;;;16.60;99.90;;;;;;4401516;32;20543;-64
2021/09/02 05:56:07;;;;;;;9.30;5.00;;;16.60;99.90;;;;;;4401864;32;20167;-64
2021/09/02 05:58:34;;;;;;;7.23;4.97;;;16.60;99.90;;;;;;4403283;32;20171;-64
2021/09/02 06:01:01;;;;;;;8.53;5.17;;;16.70;99.90;;;;;;4401503;32;20203;-63
2021/09/02 06:03:28;;;;;;;6.97;4.63;;;16.70;99.90;;;;;;4401778;32;20304;-63
2021/09/02 06:05:55;;;;;;;6.90;4.27;;;16.80;99.90;;;;;;4402936;32;20193;-64
2021/09/02 06:08:22;;;;;;;9.13;5.00;;;16.80;99.90;;;;;;4403099;32;20253;-64
2021/09/02 06:10:49;;;;;;;7.93;4.67;;;16.90;99.90;;;;;;4399782;32;20180;-66
2021/09/02 06:13:17;;;;;;;9.00;4.90;;;16.90;99.90;;;;;;4400560;32;20161;-64
2021/09/02 06:15:45;;;;;;;7.60;4.80;;;17.00;99.90;;;;;;4402858;32;20190;-66
2021/09/02 06:18:11;;;;;;;8.23;4.77;;;17.00;99.90;;;;;;4401342;32;20179;-65
2021/09/02 06:20:38;;;;;;;9.60;5.27;;;17.20;99.90;;;;;;4401552;32;20152;-66
2021/09/02 06:23:05;;;;;;;9.73;4.50;;;17.30;99.90;;;;;;4402208;32;20237;-65
2021/09/02 06:25:32;;;;;;;9.30;4.90;;;17.40;99.90;;;;;;4402010;32;20514;-65
2021/09/02 06:27:59;;;;;;;7.00;4.63;;;17.40;99.90;;;;;;4397677;32;20152;-64
2021/09/02 06:30:27;;;;;;;8.27;5.00;;;17.50;99.90;;;;;;4392721;32;20147;-65
2021/09/02 06:32:54;;;;;;;9.20;5.00;;;17.60;99.90;;;;;;4398805;32;20564;-64
2021/09/02 06:35:21;;;;;;;7.80;5.23;;;17.60;99.90;;;;;;4398135;32;20266;-66
2021/09/02 06:37:48;;;;;;;6.57;5.03;;;17.70;99.90;;;;;;4393218;32;20144;-64
2021/09/02 06:40:16;;;;;;;7.60;4.57;;;17.70;99.90;;;;;;4397687;32;20167;-66
2021/09/02 06:42:42;;;;;;;9.03;5.33;;;17.90;99.90;;;;;;4402669;32;20159;-64
2021/09/02 06:45:10;;;;;;;9.13;4.57;;;18.00;99.90;;;;;;4399945;32;20195;-64
2021/09/02 06:47:39;;;;;;;6.10;4.20;;;18.10;99.90;;;;;;4403894;32;20250;-65
2021/09/02 06:50:08;;;;;;;8.33;4.50;;;18.30;99.90;;;;;;4396323;32;20148;-66
2021/09/02 06:52:34;;;;;;;8.80;4.17;;;18.50;99.90;;;;;;4400342;32;20143;-62
2021/09/02 06:55:01;;;;;;;8.27;4.67;;;18.50;99.90;;;;;;4399000;32;20202;-63
2021/09/02 06:57:28;;;;;;;8.30;4.57;;;18.80;99.90;;;;;;4404368;32;20144;-65
2021/09/02 06:59:56;;;;;;;6.40;4.03;;;19.00;99.90;;;;;;4393560;32;20145;-64
2021/09/02 07:02:23;;;;;;;5.27;3.90;;;19.10;99.90;;;;;;4392462;32;20221;-65
2021/09/02 07:04:51;;;;;;;9.00;4.37;;;19.30;99.90;;;;;;4404470;32;20203;-65
2021/09/02 07:07:18;;;;;;;5.93;3.90;;;19.40;99.90;;;;;;4399210;32;20472;-63
2021/09/02 07:09:45;;;;;;;7.97;4.07;;;19.40;99.90;;;;;;4400454;32;20140;-64
2021/09/02 07:12:12;;;;;;;7.40;4.33;;;19.50;99.90;;;;;;4400415;32;20144;-64
2021/09/02 07:14:38;;;;;;;6.37;4.53;;;19.50;99.90;;;;;;4404366;32;20652;-64
2021/09/02 07:17:05;;;;;;;6.60;4.27;;;19.60;99.90;;;;;;4404517;32;20172;-64
2021/09/02 07:19:33;;;;;;;6.37;4.27;;;19.70;99.90;;;;;;4399367;32;20217;-65
2021/09/02 07:22:01;;;;;;;7.73;4.30;;;20.00;99.90;;;;;;4392252;32;20253;-65
2021/09/02 07:24:28;;;;;;;4.87;3.80;;;20.30;99.90;;;;;;4394301;32;20191;-63
2021/09/02 07:26:55;;;;;;;8.07;4.67;;;20.80;99.90;;;;;;4402377;32;20158;-65
2021/09/02 07:29:22;;;;;;;8.40;4.27;;;21.20;99.90;;;;;;4406920;32;20214;-63
2021/09/02 07:31:49;;;;;;;7.33;4.07;;;21.40;99.30;;;;;;4407164;32;20618;-65
2021/09/02 07:34:16;;;;;;;7.00;4.47;;;21.50;99.20;;;;;;4407510;32;20223;-65
2021/09/02 07:36:43;;;;;;;6.17;4.10;;;21.40;98.40;;;;;;4399940;32;20171;-65
2021/09/02 07:39:12;;;;;;;8.53;4.50;;;21.20;98.20;;;;;;4405357;32;20186;-66
2021/09/02 07:41:39;;;;;;;6.77;4.10;;;21.20;98.30;;;;;;4403848;32;20162;-65
2021/09/02 07:44:06;;;;;;;7.33;4.10;;;21.10;98.50;;;;;;4399863;32;20572;-65
2021/09/02 07:46:33;;;;;;;8.17;4.20;;;21.20;98.60;;;;;;4402960;32;20156;-65
2021/09/02 07:49:00;;;;;;;8.60;4.27;;;21.40;98.90;;;;;;4398876;32;20167;-66
2021/09/02 07:51:27;;;;;;;6.53;3.47;;;21.40;96.90;;;;;;4407929;32;20181;-64
2021/09/02 07:53:54;;;;;;;6.93;3.60;;;21.50;97.30;;;;;;4406669;32;20143;-67
2021/09/02 07:56:22;;;;;;;4.23;3.23;;;21.40;97.00;;;;;;4408252;32;20514;-65
2021/09/02 07:58:48;;;;;;;5.60;3.37;;;21.20;97.00;;;;;;4405448;32;20517;-64
2021/09/02 08:01:16;;;;;;;6.17;3.50;;;21.00;97.30;;;;;;4401622;32;20163;-64
2021/09/02 08:03:43;;;;;;;5.47;3.83;;;21.10;98.20;;;;;;4406363;32;20219;-64
2021/09/02 08:06:10;;;;;;;6.03;3.30;;;21.10;98.40;;;;;;4405982;32;20214;-65
2021/09/02 08:08:37;;;;;;;9.60;4.23;;;21.10;98.80;;;;;;4406367;32;20166;-65
2021/09/02 08:11:04;;;;;;;11.47;4.30;;;21.20;98.00;;;;;;4403824;32;20140;-64
2021/09/02 08:13:32;;;;;;;6.30;4.03;;;21.20;97.10;;;;;;4398273;32;20167;-65
2021/09/02 08:15:59;;;;;;;4.33;3.80;;;21.20;97.80;;;;;;4396707;32;20148;-66
2021/09/02 08:18:26;;;;;;;6.53;3.63;;;21.30;98.90;;;;;;4395583;32;20145;-67
2021/09/02 08:20:53;;;;;;;6.17;3.40;;;21.30;98.50;;;;;;4400679;32;20155;-64
2021/09/02 08:23:20;;;;;;;7.37;4.00;;;21.30;98.30;;;;;;4405294;32;20645;-66
2021/09/02 08:25:47;;;;;;;5.10;3.40;;;21.30;97.50;;;;;;4401101;32;20143;-67
2021/09/02 08:28:17;;;;;;;7.47;4.07;;;21.20;98.00;;;;;;4404597;32;20156;-64
2021/09/02 08:30:45;;;;;;;5.40;3.60;;;21.10;97.10;;;;;;4405934;32;20151;-63
2021/09/02 08:33:12;;;;;;;5.87;3.57;;;21.00;98.10;;;;;;4394662;32;20141;-66
2021/09/02 08:35:39;;;;;;;5.70;3.87;;;21.00;98.50;;;;;;4397065;32;20183;-65
2021/09/02 08:38:10;;;;;;;11.83;4.73;;;20.80;98.20;;;;;;4403022;32;20160;-65
2021/09/02 08:40:40;;;;;;;6.10;3.83;;;20.70;98.20;;;;;;4405367;32;20147;-64
2021/09/02 08:43:07;;;;;;;7.17;4.03;;;20.70;98.50;;;;;;4401631;32;20466;-64
2021/09/02 08:45:34;;;;;;;6.57;3.13;;;20.60;98.30;;;;;;4399819;32;20168;-65
2021/09/02 08:48:02;;;;;;;8.00;3.63;;;20.60;98.20;;;;;;4406695;32;20143;-65
2021/09/02 08:50:32;;;;;;;7.33;3.73;;;20.70;98.40;;;;;;4397863;32;20149;-64
2021/09/02 08:52:59;;;;;;;6.27;3.80;;;21.90;98.00;;;;;;4400921;32;20476;-65
2021/09/02 08:55:26;;;;;;;6.77;3.47;;;23.20;95.30;;;;;;4402417;32;20164;-67
2021/09/02 08:57:54;;;;;;;5.67;4.23;;;22.80;95.00;;;;;;4393618;32;20184;-66
2021/09/02 09:00:23;;;;;;;6.13;4.23;;;22.40;95.60;;;;;;4399990;32;20211;-64
2021/09/02 09:02:57;;;;;;;7.90;4.03;;;22.10;96.00;;;;;;4404587;32;20520;-66
2021/09/02 09:05:27;;;;;;;7.37;3.53;;;21.80;96.00;;;;;;4401897;32;20156;-65
2021/09/02 09:07:54;;;;;;;8.87;3.93;;;21.60;96.00;;;;;;4405306;32;20482;-65
2021/09/02 09:10:23;;;;;;;5.90;3.53;;;21.50;96.30;;;;;;4402968;32;20140;-64
2021/09/02 09:12:53;;;;;;;9.57;4.87;;;21.50;96.80;;;;;;4406166;32;20167;-65
2021/09/02 09:15:21;;;;;;;5.77;3.23;;;21.70;97.50;;;;;;4405905;32;20194;-65
2021/09/02 09:17:49;;;;;;;8.97;4.03;;;21.90;97.60;;;;;;4404855;32;20162;-65
2021/09/02 09:20:18;;;;;;;7.33;3.97;;;21.90;96.90;;;;;;4402410;32;20152;-64
2021/09/02 09:22:50;;;;;;;6.37;3.57;;;21.90;96.80;;;;;;4395067;32;20532;-65
2021/09/02 09:25:17;;;;;;;7.57;3.93;;;21.80;97.00;;;;;;4397409;32;20243;-66
2021/09/02 09:27:50;;;;;;;9.10;3.97;;;21.80;96.90;;;;;;4396666;32;20162;-65
2021/09/02 09:30:19;;;;;;;5.67;3.40;;;21.90;96.60;;;;;;4391513;32;20148;-66
2021/09/02 09:32:48;;;;;;;5.60;3.60;;;22.10;96.70;;;;;;4399897;32;20152;-66
2021/09/02 09:35:17;;;;;;;5.67;3.70;;;22.10;96.50;;;;;;4403397;32;20600;-66
2021/09/02 09:37:46;;;;;;;7.80;3.60;;;22.00;96.80;;;;;;4398699;32;20147;-65
2021/09/02 09:40:34;;;;;;;6.13;4.43;;;21.90;96.70;;;;;;4405715;32;20174;-65
2021/09/02 09:43:06;;;;;;;7.17;4.67;;;21.70;96.60;;;;;;4400500;32;20140;-65
2021/09/02 09:45:39;;;;;;;7.73;4.20;;;21.70;97.50;;;;;;4401842;32;20191;-67
2021/09/02 09:48:30;;;;;;;8.77;4.47;;;21.60;96.80;;;;;;4395464;32;20219;-65
2021/09/02 09:51:10;;;;;;;6.60;4.13;;;21.60;96.90;;;;;;4402870;32;20190;-68
2021/09/02 09:53:39;;;;;;;8.47;4.23;;;21.40;96.90;;;;;;4391961;32;20166;-65
2021/09/02 09:56:07;;;;;;;7.20;4.13;;;21.50;97.40;;;;;;4396865;32;20174;-65
2021/09/02 09:58:35;;;;;;;5.97;4.17;;;21.80;97.10;;;;;;4404591;32;20178;-65
2021/09/02 10:01:08;;;;;;;5.77;3.87;;;22.20;97.00;;;;;;4393603;32;20230;-65
2021/09/02 10:03:37;;;;;;;6.13;4.13;;;22.50;97.10;;;;;;4391272;32;20164;-65
2021/09/02 10:06:06;;;;;;;5.83;4.67;;;22.70;97.20;;;;;;4394810;32;20148;-64
2021/09/02 10:08:36;;;;;;;7.57;4.33;;;22.80;96.20;;;;;;4400674;32;20144;-67
2021/09/02 10:11:08;;;;;;;9.10;4.93;;;23.00;96.40;;;;;;4404297;32;20611;-69
2021/09/02 10:13:37;;;;;;;7.60;4.37;;;23.10;95.70;;;;;;4391955;32;20148;-66
2021/09/02 10:16:05;;;;;;;8.23;4.87;;;23.20;95.30;;;;;;4400855;32;20162;-68
2021/09/02 10:18:34;;;;;;;8.07;5.47;;;23.10;95.30;;;;;;4399700;32;20148;-67
2021/09/02 10:21:04;;;;;;;7.93;4.17;;;23.10;94.90;;;;;;4401707;32;20148;-70
2021/09/02 10:23:31;;;;;;;8.83;4.23;;;23.00;95.50;;;;;;4401843;32;20205;-65
2021/09/02 10:25:58;;;;;;;7.83;4.90;;;23.00;95.90;;;;;;4402078;32;20144;-66
2021/09/02 10:28:31;;;;;;;6.40;4.70;;;23.00;95.50;;;;;;4397476;32;20417;-66
2021/09/02 10:31:00;;;;;;;8.37;4.17;;;23.00;95.80;;;;;;4405084;32;20170;-66
2021/09/02 10:33:40;;;;;;;9.30;5.00;;;23.30;95.40;;;;;;4404109;32;20152;-66
2021/09/02 10:36:40;;;;;;;7.93;4.60;;;23.60;95.50;;;;;;4401540;32;20127;-65
2021/09/02 10:39:07;;;;;;;9.10;4.97;;;23.40;94.70;;;;;;4396233;32;20166;-65
2021/09/02 10:41:50;;;;;;;9.17;4.83;;;23.40;94.30;;;;;;4404607;32;20262;-66
2021/09/02 10:44:22;;;;;;;9.30;5.13;;;23.40;94.70;;;;;;4398001;32;20536;-66
2021/09/02 10:46:52;;;;;;;9.27;5.43;;;23.50;94.90;;;;;;4391209;32;20166;-68
2021/09/02 10:49:31;;;;;;;9.73;5.53;;;23.70;94.80;;;;;;4390407;32;20180;-66
2021/09/02 10:52:00;;;;;;;6.17;4.27;;;23.70;94.00;;;;;;4392106;32;20276;-66
2021/09/02 10:54:30;;;;;;;10.55;5.25;;;23.60;94.40;;;;;;4395545;32;20171;-65
2021/09/02 10:57:10;;;;;;;9.03;5.90;;;23.20;94.00;;;;;;4396547;32;20148;-68
2021/09/02 10:59:43;;;;;;;9.53;5.37;;;23.20;94.00;;;;;;4403241;32;20228;-66
2021/09/02 11:02:31;;;;;;;8.00;5.30;;;22.80;94.40;;;;;;4406146;32;20603;-66
2021/09/02 11:05:01;;;;;;;9.60;5.57;;;22.70;95.20;;;;;;4384690;32;20168;-66
2021/09/02 11:07:36;;;;;;;9.23;5.13;;;22.90;95.00;;;;;;4380647;32;20143;-66
2021/09/02 11:10:11;;;;;;;11.23;5.40;;;23.10;95.90;;;;;;4384867;32;20183;-65
2021/09/02 11:12:38;;;;;;;10.13;5.70;;;23.10;95.10;;;;;;4386431;32;20178;-65
2021/09/02 11:15:07;;;;;;;7.50;5.33;;;23.10;95.30;;;;;;4383913;32;20183;-67
2021/09/02 11:17:34;;;;;;;10.73;5.87;;;23.10;95.10;;;;;;4391686;32;20202;-65
2021/09/02 11:20:19;;;;;;;8.63;5.67;;;23.10;94.80;;;;;;4389739;32;20224;-66
2021/09/02 11:22:46;;;;;;;7.27;4.70;;;23.00;94.40;;;;;;4389937;32;20162;-66
2021/09/02 11:25:14;;;;;;;10.10;6.43;;;22.90;95.40;;;;;;4391745;32;20179;-66
2021/09/02 11:27:42;;;;;;;12.03;6.47;;;23.10;95.10;;;;;;4387427;32;20198;-66
2021/09/02 11:30:17;;;;;;;7.87;5.53;;;23.40;94.70;;;;;;4396367;32;20269;-67
2021/09/02 11:32:45;;;;;;;8.18;4.95;;;23.60;94.50;;;;;;4377759;32;20148;-66
2021/09/02 11:35:14;;;;;;;9.43;6.40;;;23.80;94.20;;;;;;4378736;32;20153;-65
2021/09/02 11:37:45;;;;;;;11.13;7.10;;;24.10;94.40;;;;;;4378467;32;20153;-66
2021/09/02 11:40:23;;;;;;;9.03;5.40;;;24.10;93.30;;;;;;4382720;32;20149;-66
2021/09/02 11:42:50;;;;;;;8.10;5.78;;;23.90;94.10;;;;;;4380522;32;20170;-67
2021/09/02 11:45:18;;;;;;;10.77;6.23;;;23.70;94.00;;;;;;4384972;32;20163;-66
2021/09/02 11:47:46;;;;;;;8.52;5.57;;;23.50;94.00;;;;;;4387142;32;20148;-67
2021/09/02 11:50:14;;;;;;;8.60;4.93;;;23.10;94.70;;;;;;4389938;32;20231;-66
2021/09/02 11:52:44;;;;;;;11.00;5.97;;;22.80;95.10;;;;;;4386675;32;20178;-66
2021/09/02 11:55:15;;;;;;;5.87;4.73;;;22.60;95.40;;;;;;4394509;32;20666;-66
2021/09/02 11:57:42;;;;;;;8.87;5.67;;;22.70;96.20;;;;;;4390763;32;20546;-66
2021/09/02 12:00:16;;;;;;;8.77;6.15;;;22.90;95.80;;;;;;4397030;32;20164;-66
2021/09/02 12:02:51;;;;;;;9.27;5.30;;;22.70;94.70;;;;;;4385651;32;20522;-67
2021/09/02 12:05:26;;;;;;;9.27;5.87;;;22.70;95.30;;;;;;4389498;32;20159;-66
2021/09/02 12:07:55;;;;;;;7.83;5.20;;;22.60;95.90;;;;;;4388494;32;20136;-65
2021/09/02 12:10:22;;;;;;;8.17;5.07;;;22.60;95.80;;;;;;4390171;32;20141;-66
2021/09/02 12:12:50;;;;;;;10.20;6.00;;;22.30;96.10;;;;;;4389415;32;20152;-66
2021/09/02 12:15:27;;;;;;;10.00;6.00;;;22.00;96.20;;;;;;4387308;32;20469;-66
2021/09/02 12:18:09;;;;;;;8.93;5.60;;;21.80;96.50;;;;;;4388185;32;20172;-66
2021/09/02 12:20:38;;;;;;;8.23;5.63;;;21.70;96.90;;;;;;4390580;32;20149;-66
2021/09/02 12:23:18;;;;;;;10.57;6.10;;;21.90;96.90;;;;;;4390449;32;20173;-66
2021/09/02 12:26:04;;;;;;;10.10;6.67;;;22.00;96.10;;;;;;4389761;32;20625;-66
2021/09/02 12:28:37;;;;;;;10.37;7.37;;;22.10;95.20;;;;;;4390680;32;20219;-66
2021/09/02 12:31:21;;;;;;;8.80;5.80;;;22.20;95.30;;;;;;4389051;32;20179;-67
2021/09/02 12:34:05;;;;;;;8.37;6.30;;;22.20;95.50;;;;;;4389300;32;20159;-66
2021/09/02 12:36:34;;;;;;;11.17;5.87;;;22.10;95.40;;;;;;4389805;32;20485;-66
2021/09/02 12:39:19;;;;;;;9.67;5.70;;;22.00;96.00;;;;;;4391051;32;20156;-65
2021/09/02 12:41:53;;;;;;;11.27;6.17;;;21.90;96.60;;;;;;4390785;32;20668;-66
2021/09/02 12:44:40;;;;;;;10.80;5.83;;;21.60;96.90;;;;;;4389195;32;20170;-69
2021/09/02 12:47:28;;;;;;;;;;;;;;;;;;;;;
2021/09/02 12:49:56;;;;;;;9.03;6.23;;;21.00;98.70;;;;;;4390050;32;20140;-67
2021/09/02 12:52:35;;;;;;;9.03;5.83;;;20.90;98.00;;;;;;4391215;32;20488;-67
2021/09/02 12:55:11;;;;;;;7.70;6.03;;;21.00;98.30;;;;;;4391256;32;20215;-67